sensor_id;sensor_type;location;lat;lon;timestamp;P1;durP1;ratioP1;P2;durP2;ratioP2
36391;SDS011;22639;42.690;23.356;2022-09-29T00:00:50;4.00;;;3.00;;
36391;SDS011;22639;42.690;23.356;2022-09-29T00:03:59;3.75;;;2.58;;
36391;SDS011;22639;42.690;23.356;2022-09-29T00:06:33;6.05;;;3.58;;
36391;SDS011;22639;42.690;23.356;2022-09-29T00:09:52;3.03;;;2.60;;
36391;SDS011;22639;42.690;23.356;2022-09-29T00:12:55;2.92;;;2.63;;
36391;SDS011;22639;42.690;23.356;2022-09-29T00:16:03;3.08;;;2.88;;
36391;SDS011;22639;42.690;23.356;2022-09-29T00:18:55;3.95;;;2.83;;
36391;SDS011;22639;42.690;23.356;2022-09-29T00:22:07;6.20;;;3.25;;
36391;SDS011;22639;42.690;23.356;2022-09-29T00:25:13;3.17;;;2.83;;
36391;SDS011;22639;42.690;23.356;2022-09-29T00:28:39;3.97;;;2.88;;
36391;SDS011;22639;42.690;23.356;2022-09-29T00:32:04;5.45;;;2.90;;
36391;SDS011;22639;42.690;23.356;2022-09-29T00:35:27;4.55;;;3.25;;
36391;SDS011;22639;42.690;23.356;2022-09-29T00:38:54;3.10;;;2.80;;
36391;SDS011;22639;42.690;23.356;2022-09-29T00:42:18;3.90;;;3.10;;
36391;SDS011;22639;42.690;23.356;2022-09-29T00:45:47;4.70;;;3.05;;
36391;SDS011;22639;42.690;23.356;2022-09-29T00:53:23;4.07;;;3.17;;
36391;SDS011;22639;42.690;23.356;2022-09-29T00:56:47;6.78;;;4.10;;
36391;SDS011;22639;42.690;23.356;2022-09-29T01:00:23;3.80;;;3.30;;
36391;SDS011;22639;42.690;23.356;2022-09-29T01:03:51;6.13;;;3.30;;
36391;SDS011;22639;42.690;23.356;2022-09-29T01:07:18;4.35;;;3.10;;
36391;SDS011;22639;42.690;23.356;2022-09-29T01:11:09;3.35;;;3.05;;
36391;SDS011;22639;42.690;23.356;2022-09-29T01:14:34;3.60;;;2.70;;
36391;SDS011;22639;42.690;23.356;2022-09-29T01:17:59;3.63;;;3.08;;
36391;SDS011;22639;42.690;23.356;2022-09-29T01:40:31;5.45;;;3.45;;
36391;SDS011;22639;42.690;23.356;2022-09-29T01:47:23;5.03;;;3.00;;
36391;SDS011;22639;42.690;23.356;2022-09-29T01:50:55;3.22;;;2.92;;
36391;SDS011;22639;42.690;23.356;2022-09-29T01:54:32;5.10;;;3.13;;
36391;SDS011;22639;42.690;23.356;2022-09-29T01:58:07;5.53;;;3.63;;
36391;SDS011;22639;42.690;23.356;2022-09-29T02:01:40;4.70;;;3.50;;
36391;SDS011;22639;42.690;23.356;2022-09-29T02:05:17;5.65;;;3.38;;
36391;SDS011;22639;42.690;23.356;2022-09-29T02:08:50;6.45;;;3.50;;
36391;SDS011;22639;42.690;23.356;2022-09-29T02:12:20;6.45;;;3.13;;
36391;SDS011;22639;42.690;23.356;2022-09-29T02:15:48;5.60;;;3.15;;
36391;SDS011;22639;42.690;23.356;2022-09-29T02:19:24;3.65;;;3.20;;
36391;SDS011;22639;42.690;23.356;2022-09-29T02:22:48;6.47;;;3.92;;
36391;SDS011;22639;42.690;23.356;2022-09-29T02:26:12;5.22;;;4.03;;
36391;SDS011;22639;42.690;23.356;2022-09-29T02:29:37;4.95;;;4.43;;
36391;SDS011;22639;42.690;23.356;2022-09-29T02:33:02;7.85;;;5.38;;
36391;SDS011;22639;42.690;23.356;2022-09-29T02:47:32;6.30;;;5.53;;
36391;SDS011;22639;42.690;23.356;2022-09-29T02:55:04;8.50;;;5.93;;
36391;SDS011;22639;42.690;23.356;2022-09-29T03:02:30;7.07;;;5.80;;
36391;SDS011;22639;42.690;23.356;2022-09-29T03:05:53;6.03;;;5.47;;
36391;SDS011;22639;42.690;23.356;2022-09-29T03:09:17;7.90;;;5.28;;
36391;SDS011;22639;42.690;23.356;2022-09-29T03:12:42;5.30;;;4.82;;
36391;SDS011;22639;42.690;23.356;2022-09-29T03:16:06;5.35;;;4.85;;
36391;SDS011;22639;42.690;23.356;2022-09-29T03:19:30;11.00;;;4.05;;
36391;SDS011;22639;42.690;23.356;2022-09-29T03:22:56;6.28;;;4.38;;
36391;SDS011;22639;42.690;23.356;2022-09-29T03:26:20;4.75;;;4.25;;
36391;SDS011;22639;42.690;23.356;2022-09-29T03:29:08;7.20;;;5.47;;
36391;SDS011;22639;42.690;23.356;2022-09-29T03:32:31;6.90;;;4.75;;
36391;SDS011;22639;42.690;23.356;2022-09-29T03:35:55;6.60;;;5.20;;
36391;SDS011;22639;42.690;23.356;2022-09-29T03:39:19;6.57;;;5.45;;
36391;SDS011;22639;42.690;23.356;2022-09-29T03:42:44;6.97;;;5.45;;
36391;SDS011;22639;42.690;23.356;2022-09-29T03:46:08;8.50;;;5.60;;
36391;SDS011;22639;42.690;23.356;2022-09-29T03:49:32;6.63;;;5.93;;
36391;SDS011;22639;42.690;23.356;2022-09-29T03:52:56;9.07;;;5.45;;
36391;SDS011;22639;42.690;23.356;2022-09-29T03:56:20;6.30;;;5.65;;
36391;SDS011;22639;42.690;23.356;2022-09-29T03:59:44;9.23;;;5.57;;
36391;SDS011;22639;42.690;23.356;2022-09-29T04:03:07;9.55;;;6.60;;
36391;SDS011;22639;42.690;23.356;2022-09-29T04:06:31;8.52;;;6.25;;
36391;SDS011;22639;42.690;23.356;2022-09-29T04:09:56;7.15;;;5.72;;
36391;SDS011;22639;42.690;23.356;2022-09-29T04:13:20;9.27;;;6.10;;
36391;SDS011;22639;42.690;23.356;2022-09-29T04:16:44;13.68;;;7.00;;
36391;SDS011;22639;42.690;23.356;2022-09-29T04:20:08;9.13;;;6.00;;
36391;SDS011;22639;42.690;23.356;2022-09-29T04:23:33;7.25;;;5.70;;
36391;SDS011;22639;42.690;23.356;2022-09-29T04:26:57;6.20;;;5.53;;
36391;SDS011;22639;42.690;23.356;2022-09-29T04:30:21;9.70;;;6.50;;
36391;SDS011;22639;42.690;23.356;2022-09-29T04:33:45;5.80;;;5.27;;
36391;SDS011;22639;42.690;23.356;2022-09-29T04:37:09;5.70;;;4.97;;
36391;SDS011;22639;42.690;23.356;2022-09-29T04:40:33;6.00;;;4.87;;
36391;SDS011;22639;42.690;23.356;2022-09-29T04:44:00;13.32;;;5.43;;
36391;SDS011;22639;42.690;23.356;2022-09-29T04:47:23;8.18;;;5.35;;
36391;SDS011;22639;42.690;23.356;2022-09-29T04:50:48;6.00;;;4.60;;
36391;SDS011;22639;42.690;23.356;2022-09-29T04:54:13;7.33;;;4.73;;
36391;SDS011;22639;42.690;23.356;2022-09-29T04:57:37;5.55;;;5.05;;
36391;SDS011;22639;42.690;23.356;2022-09-29T05:01:08;8.02;;;4.97;;
36391;SDS011;22639;42.690;23.356;2022-09-29T05:04:33;6.25;;;4.80;;
36391;SDS011;22639;42.690;23.356;2022-09-29T05:07:56;7.38;;;3.80;;
36391;SDS011;22639;42.690;23.356;2022-09-29T05:11:20;3.67;;;3.25;;
36391;SDS011;22639;42.690;23.356;2022-09-29T05:14:45;5.38;;;3.25;;
36391;SDS011;22639;42.690;23.356;2022-09-29T05:18:09;5.30;;;3.25;;
36391;SDS011;22639;42.690;23.356;2022-09-29T05:21:32;4.40;;;3.63;;
36391;SDS011;22639;42.690;23.356;2022-09-29T05:24:34;7.03;;;4.00;;
36391;SDS011;22639;42.690;23.356;2022-09-29T05:27:59;4.53;;;3.20;;
36391;SDS011;22639;42.690;23.356;2022-09-29T05:31:23;3.95;;;3.15;;
36391;SDS011;22639;42.690;23.356;2022-09-29T05:34:47;5.15;;;3.53;;
36391;SDS011;22639;42.690;23.356;2022-09-29T05:38:11;6.70;;;3.25;;
36391;SDS011;22639;42.690;23.356;2022-09-29T05:41:35;5.30;;;3.15;;
36391;SDS011;22639;42.690;23.356;2022-09-29T05:44:59;5.45;;;3.95;;
36391;SDS011;22639;42.690;23.356;2022-09-29T05:48:23;6.13;;;4.25;;
36391;SDS011;22639;42.690;23.356;2022-09-29T05:51:47;5.95;;;4.15;;
36391;SDS011;22639;42.690;23.356;2022-09-29T05:55:13;10.80;;;4.78;;
36391;SDS011;22639;42.690;23.356;2022-09-29T05:58:43;6.63;;;4.07;;
36391;SDS011;22639;42.690;23.356;2022-09-29T06:02:07;6.28;;;3.95;;
36391;SDS011;22639;42.690;23.356;2022-09-29T06:05:31;4.80;;;4.40;;
36391;SDS011;22639;42.690;23.356;2022-09-29T06:08:56;6.20;;;4.20;;
36391;SDS011;22639;42.690;23.356;2022-09-29T06:12:20;4.82;;;3.85;;
36391;SDS011;22639;42.690;23.356;2022-09-29T06:15:44;10.38;;;4.57;;
36391;SDS011;22639;42.690;23.356;2022-09-29T06:19:08;5.40;;;3.35;;
36391;SDS011;22639;42.690;23.356;2022-09-29T06:22:33;6.32;;;3.88;;
36391;SDS011;22639;42.690;23.356;2022-09-29T06:25:57;8.25;;;4.28;;
36391;SDS011;22639;42.690;23.356;2022-09-29T06:29:21;7.65;;;4.43;;
36391;SDS011;22639;42.690;23.356;2022-09-29T06:32:45;5.35;;;4.28;;
36391;SDS011;22639;42.690;23.356;2022-09-29T06:40:06;4.28;;;3.88;;
36391;SDS011;22639;42.690;23.356;2022-09-29T06:43:29;6.22;;;4.38;;
36391;SDS011;22639;42.690;23.356;2022-09-29T06:46:50;6.72;;;4.57;;
36391;SDS011;22639;42.690;23.356;2022-09-29T06:49:16;4.40;;;4.00;;
36391;SDS011;22639;42.690;23.356;2022-09-29T06:51:42;6.47;;;4.80;;
36391;SDS011;22639;42.690;23.356;2022-09-29T06:54:12;9.30;;;5.40;;
36391;SDS011;22639;42.690;23.356;2022-09-29T06:56:41;5.40;;;4.22;;
36391;SDS011;22639;42.690;23.356;2022-09-29T06:59:42;8.75;;;4.35;;
36391;SDS011;22639;42.690;23.356;2022-09-29T07:02:43;5.55;;;4.10;;
36391;SDS011;22639;42.690;23.356;2022-09-29T07:06:07;7.75;;;4.40;;
36391;SDS011;22639;42.690;23.356;2022-09-29T07:09:00;6.72;;;3.17;;
36391;SDS011;22639;42.690;23.356;2022-09-29T07:11:57;6.57;;;4.05;;
36391;SDS011;22639;42.690;23.356;2022-09-29T07:15:21;4.72;;;3.97;;
36391;SDS011;22639;42.690;23.356;2022-09-29T07:18:47;6.40;;;3.33;;
36391;SDS011;22639;42.690;23.356;2022-09-29T07:21:28;7.45;;;4.50;;
36391;SDS011;22639;42.690;23.356;2022-09-29T07:24:51;3.22;;;2.92;;
36391;SDS011;22639;42.690;23.356;2022-09-29T07:28:16;5.45;;;3.92;;
36391;SDS011;22639;42.690;23.356;2022-09-29T07:31:38;4.32;;;3.22;;
36391;SDS011;22639;42.690;23.356;2022-09-29T07:35:02;7.22;;;3.40;;
36391;SDS011;22639;42.690;23.356;2022-09-29T07:38:26;7.03;;;3.28;;
36391;SDS011;22639;42.690;23.356;2022-09-29T07:41:49;3.45;;;3.00;;
36391;SDS011;22639;42.690;23.356;2022-09-29T07:45:14;5.75;;;3.53;;
36391;SDS011;22639;42.690;23.356;2022-09-29T07:48:10;3.67;;;3.00;;
36391;SDS011;22639;42.690;23.356;2022-09-29T07:51:34;5.85;;;3.03;;
36391;SDS011;22639;42.690;23.356;2022-09-29T07:54:50;3.92;;;3.30;;
36391;SDS011;22639;42.690;23.356;2022-09-29T07:58:14;6.13;;;3.55;;
36391;SDS011;22639;42.690;23.356;2022-09-29T08:01:38;3.88;;;2.83;;
36391;SDS011;22639;42.690;23.356;2022-09-29T08:05:02;4.65;;;2.90;;
36391;SDS011;22639;42.690;23.356;2022-09-29T08:08:28;4.57;;;2.92;;
36391;SDS011;22639;42.690;23.356;2022-09-29T08:11:52;4.82;;;2.47;;
36391;SDS011;22639;42.690;23.356;2022-09-29T08:15:15;4.40;;;3.08;;
36391;SDS011;22639;42.690;23.356;2022-09-29T08:18:40;7.35;;;2.72;;
36391;SDS011;22639;42.690;23.356;2022-09-29T08:22:04;7.97;;;3.10;;
36391;SDS011;22639;42.690;23.356;2022-09-29T08:25:28;3.10;;;2.47;;
36391;SDS011;22639;42.690;23.356;2022-09-29T08:28:52;9.60;;;3.50;;
36391;SDS011;22639;42.690;23.356;2022-09-29T08:32:16;4.50;;;2.45;;
36391;SDS011;22639;42.690;23.356;2022-09-29T08:35:40;3.17;;;2.00;;
36391;SDS011;22639;42.690;23.356;2022-09-29T08:39:04;5.13;;;3.25;;
36391;SDS011;22639;42.690;23.356;2022-09-29T08:42:32;5.75;;;2.35;;
36391;SDS011;22639;42.690;23.356;2022-09-29T08:46:06;4.45;;;2.15;;
36391;SDS011;22639;42.690;23.356;2022-09-29T08:49:41;6.82;;;2.40;;
36391;SDS011;22639;42.690;23.356;2022-09-29T08:53:13;5.45;;;2.55;;
36391;SDS011;22639;42.690;23.356;2022-09-29T08:56:44;4.65;;;2.33;;
36391;SDS011;22639;42.690;23.356;2022-09-29T09:00:10;6.70;;;2.15;;
36391;SDS011;22639;42.690;23.356;2022-09-29T09:10:38;4.18;;;2.35;;
36391;SDS011;22639;42.690;23.356;2022-09-29T09:25:48;2.75;;;2.25;;
36391;SDS011;22639;42.690;23.356;2022-09-29T09:29:31;4.65;;;2.10;;
36391;SDS011;22639;42.690;23.356;2022-09-29T09:33:03;2.05;;;1.55;;
36391;SDS011;22639;42.690;23.356;2022-09-29T09:36:55;3.85;;;2.13;;
36391;SDS011;22639;42.690;23.356;2022-09-29T09:43:33;2.65;;;1.33;;
36391;SDS011;22639;42.690;23.356;2022-09-29T09:46:59;3.78;;;1.52;;
36391;SDS011;22639;42.690;23.356;2022-09-29T09:50:24;3.00;;;1.38;;
36391;SDS011;22639;42.690;23.356;2022-09-29T09:53:59;2.10;;;1.77;;
36391;SDS011;22639;42.690;23.356;2022-09-29T10:00:57;2.75;;;1.88;;
36391;SDS011;22639;42.690;23.356;2022-09-29T10:04:20;3.83;;;1.75;;
36391;SDS011;22639;42.690;23.356;2022-09-29T10:07:34;2.88;;;1.83;;
36391;SDS011;22639;42.690;23.356;2022-09-29T10:11:02;2.53;;;1.80;;
36391;SDS011;22639;42.690;23.356;2022-09-29T10:13:49;6.22;;;2.15;;
36391;SDS011;22639;42.690;23.356;2022-09-29T10:17:39;1.92;;;1.83;;
36391;SDS011;22639;42.690;23.356;2022-09-29T10:25:05;1.60;;;1.50;;
36391;SDS011;22639;42.690;23.356;2022-09-29T10:28:37;2.13;;;1.60;;
36391;SDS011;22639;42.690;23.356;2022-09-29T10:35:38;2.95;;;1.60;;
36391;SDS011;22639;42.690;23.356;2022-09-29T10:39:39;1.67;;;1.58;;
36391;SDS011;22639;42.690;23.356;2022-09-29T10:43:24;2.55;;;1.73;;
36391;SDS011;22639;42.690;23.356;2022-09-29T10:46:53;3.20;;;1.60;;
36391;SDS011;22639;42.690;23.356;2022-09-29T10:50:33;2.85;;;1.50;;
36391;SDS011;22639;42.690;23.356;2022-09-29T10:53:55;2.08;;;1.83;;
36391;SDS011;22639;42.690;23.356;2022-09-29T10:57:32;3.22;;;1.58;;
36391;SDS011;22639;42.690;23.356;2022-09-29T11:01:03;3.22;;;2.15;;
36391;SDS011;22639;42.690;23.356;2022-09-29T11:04:29;1.80;;;1.48;;
36391;SDS011;22639;42.690;23.356;2022-09-29T11:07:54;2.97;;;2.08;;
36391;SDS011;22639;42.690;23.356;2022-09-29T11:11:24;2.60;;;1.75;;
36391;SDS011;22639;42.690;23.356;2022-09-29T11:14:57;1.90;;;1.80;;
36391;SDS011;22639;42.690;23.356;2022-09-29T11:18:29;2.20;;;2.00;;
36391;SDS011;22639;42.690;23.356;2022-09-29T11:39:44;2.55;;;2.38;;
36391;SDS011;22639;42.690;23.356;2022-09-29T12:05:06;4.78;;;2.35;;
36391;SDS011;22639;42.690;23.356;2022-09-29T12:12:40;4.80;;;1.98;;
36391;SDS011;22639;42.690;23.356;2022-09-29T12:16:20;2.30;;;1.63;;
36391;SDS011;22639;42.690;23.356;2022-09-29T12:19:47;2.47;;;2.28;;
36391;SDS011;22639;42.690;23.356;2022-09-29T12:23:16;3.47;;;1.63;;
36391;SDS011;22639;42.690;23.356;2022-09-29T12:26:46;3.38;;;2.13;;
36391;SDS011;22639;42.690;23.356;2022-09-29T12:30:13;1.88;;;1.60;;
36391;SDS011;22639;42.690;23.356;2022-09-29T12:33:47;2.33;;;2.13;;
36391;SDS011;22639;42.690;23.356;2022-09-29T12:41:20;3.22;;;1.98;;
36391;SDS011;22639;42.690;23.356;2022-09-29T12:49:01;2.90;;;1.40;;
36391;SDS011;22639;42.690;23.356;2022-09-29T12:52:39;2.28;;;1.83;;
36391;SDS011;22639;42.690;23.356;2022-09-29T12:56:17;1.65;;;1.55;;
36391;SDS011;22639;42.690;23.356;2022-09-29T13:03:30;3.53;;;1.83;;
36391;SDS011;22639;42.690;23.356;2022-09-29T13:18:33;2.75;;;1.50;;
36391;SDS011;22639;42.690;23.356;2022-09-29T13:22:24;2.30;;;1.65;;
36391;SDS011;22639;42.690;23.356;2022-09-29T13:29:28;2.90;;;1.88;;
36391;SDS011;22639;42.690;23.356;2022-09-29T13:39:53;2.22;;;1.52;;
36391;SDS011;22639;42.690;23.356;2022-09-29T13:47:26;4.25;;;1.90;;
36391;SDS011;22639;42.690;23.356;2022-09-29T13:50:59;1.95;;;1.80;;
36391;SDS011;22639;42.690;23.356;2022-09-29T13:54:42;3.47;;;2.72;;
36391;SDS011;22639;42.690;23.356;2022-09-29T14:01:52;4.03;;;2.83;;
36391;SDS011;22639;42.690;23.356;2022-09-29T14:12:28;5.28;;;2.78;;
36391;SDS011;22639;42.690;23.356;2022-09-29T14:23:45;2.53;;;1.98;;
36391;SDS011;22639;42.690;23.356;2022-09-29T14:30:55;3.55;;;2.25;;
36391;SDS011;22639;42.690;23.356;2022-09-29T14:34:22;6.63;;;2.80;;
36391;SDS011;22639;42.690;23.356;2022-09-29T14:38:01;4.38;;;2.33;;
36391;SDS011;22639;42.690;23.356;2022-09-29T14:41:26;4.22;;;2.53;;
36391;SDS011;22639;42.690;23.356;2022-09-29T14:44:50;4.43;;;2.40;;
36391;SDS011;22639;42.690;23.356;2022-09-29T14:52:56;6.13;;;3.60;;
36391;SDS011;22639;42.690;23.356;2022-09-29T15:00:19;4.47;;;3.65;;
36391;SDS011;22639;42.690;23.356;2022-09-29T15:03:50;7.13;;;4.18;;
36391;SDS011;22639;42.690;23.356;2022-09-29T15:07:16;5.90;;;4.57;;
36391;SDS011;22639;42.690;23.356;2022-09-29T15:10:46;8.82;;;5.22;;
36391;SDS011;22639;42.690;23.356;2022-09-29T15:14:16;7.47;;;5.20;;
36391;SDS011;22639;42.690;23.356;2022-09-29T15:18:02;6.90;;;5.45;;
36391;SDS011;22639;42.690;23.356;2022-09-29T15:25:41;8.60;;;7.00;;
36391;SDS011;22639;42.690;23.356;2022-09-29T15:29:06;6.25;;;5.60;;
36391;SDS011;22639;42.690;23.356;2022-09-29T15:32:37;16.35;;;9.40;;
36391;SDS011;22639;42.690;23.356;2022-09-29T15:36:03;8.77;;;7.88;;
36391;SDS011;22639;42.690;23.356;2022-09-29T15:43:00;11.07;;;8.52;;
36391;SDS011;22639;42.690;23.356;2022-09-29T15:46:48;9.68;;;6.80;;
36391;SDS011;22639;42.690;23.356;2022-09-29T15:53:42;7.90;;;6.35;;
36391;SDS011;22639;42.690;23.356;2022-09-29T16:00:57;11.40;;;6.80;;
36391;SDS011;22639;42.690;23.356;2022-09-29T16:04:29;11.40;;;7.80;;
36391;SDS011;22639;42.690;23.356;2022-09-29T16:08:03;8.05;;;6.47;;
36391;SDS011;22639;42.690;23.356;2022-09-29T16:11:31;7.40;;;6.45;;
36391;SDS011;22639;42.690;23.356;2022-09-29T16:14:58;8.63;;;6.72;;
36391;SDS011;22639;42.690;23.356;2022-09-29T16:18:28;11.02;;;8.13;;
36391;SDS011;22639;42.690;23.356;2022-09-29T16:21:57;11.98;;;7.13;;
36391;SDS011;22639;42.690;23.356;2022-09-29T16:25:32;11.45;;;6.78;;
36391;SDS011;22639;42.690;23.356;2022-09-29T16:29:16;7.93;;;5.82;;
36391;SDS011;22639;42.690;23.356;2022-09-29T16:32:54;10.35;;;5.88;;
36391;SDS011;22639;42.690;23.356;2022-09-29T16:36:20;7.57;;;6.28;;
36391;SDS011;22639;42.690;23.356;2022-09-29T16:39:46;9.38;;;6.57;;
36391;SDS011;22639;42.690;23.356;2022-09-29T16:43:22;9.38;;;7.35;;
36391;SDS011;22639;42.690;23.356;2022-09-29T16:46:57;9.40;;;6.28;;
36391;SDS011;22639;42.690;23.356;2022-09-29T16:50:22;11.50;;;7.18;;
36391;SDS011;22639;42.690;23.356;2022-09-29T16:53:48;10.50;;;7.72;;
36391;SDS011;22639;42.690;23.356;2022-09-29T17:00:50;11.68;;;7.38;;
36391;SDS011;22639;42.690;23.356;2022-09-29T17:04:16;8.75;;;6.82;;
36391;SDS011;22639;42.690;23.356;2022-09-29T17:07:43;9.52;;;6.63;;
36391;SDS011;22639;42.690;23.356;2022-09-29T17:11:07;11.77;;;8.13;;
36391;SDS011;22639;42.690;23.356;2022-09-29T17:14:30;12.07;;;6.82;;
36391;SDS011;22639;42.690;23.356;2022-09-29T17:17:54;10.55;;;7.13;;
36391;SDS011;22639;42.690;23.356;2022-09-29T17:21:21;8.00;;;6.30;;
36391;SDS011;22639;42.690;23.356;2022-09-29T17:24:56;9.18;;;6.22;;
36391;SDS011;22639;42.690;23.356;2022-09-29T17:28:40;9.07;;;5.38;;
36391;SDS011;22639;42.690;23.356;2022-09-29T17:32:08;6.35;;;5.75;;
36391;SDS011;22639;42.690;23.356;2022-09-29T17:35:37;9.35;;;5.82;;
36391;SDS011;22639;42.690;23.356;2022-09-29T17:39:02;9.55;;;6.10;;
36391;SDS011;22639;42.690;23.356;2022-09-29T17:42:27;12.80;;;8.65;;
36391;SDS011;22639;42.690;23.356;2022-09-29T17:45:54;10.43;;;6.53;;
36391;SDS011;22639;42.690;23.356;2022-09-29T17:49:18;11.32;;;7.30;;
36391;SDS011;22639;42.690;23.356;2022-09-29T17:53:00;14.63;;;7.05;;
36391;SDS011;22639;42.690;23.356;2022-09-29T17:56:25;10.18;;;6.75;;
36391;SDS011;22639;42.690;23.356;2022-09-29T17:59:51;9.27;;;6.00;;
36391;SDS011;22639;42.690;23.356;2022-09-29T18:03:17;9.98;;;6.43;;
36391;SDS011;22639;42.690;23.356;2022-09-29T18:06:41;7.35;;;6.65;;
36391;SDS011;22639;42.690;23.356;2022-09-29T18:10:12;10.60;;;6.72;;
36391;SDS011;22639;42.690;23.356;2022-09-29T18:13:38;10.07;;;6.97;;
36391;SDS011;22639;42.690;23.356;2022-09-29T18:17:02;8.02;;;6.70;;
36391;SDS011;22639;42.690;23.356;2022-09-29T18:20:29;10.90;;;7.10;;
36391;SDS011;22639;42.690;23.356;2022-09-29T18:23:57;10.18;;;7.82;;
36391;SDS011;22639;42.690;23.356;2022-09-29T18:27:21;10.75;;;6.50;;
36391;SDS011;22639;42.690;23.356;2022-09-29T18:30:46;9.90;;;8.50;;
36391;SDS011;22639;42.690;23.356;2022-09-29T18:34:15;9.82;;;7.38;;
36391;SDS011;22639;42.690;23.356;2022-09-29T18:37:43;10.85;;;7.60;;
36391;SDS011;22639;42.690;23.356;2022-09-29T18:41:14;13.73;;;7.55;;
36391;SDS011;22639;42.690;23.356;2022-09-29T18:44:40;9.52;;;7.78;;
36391;SDS011;22639;42.690;23.356;2022-09-29T18:48:11;12.63;;;9.07;;
36391;SDS011;22639;42.690;23.356;2022-09-29T18:51:36;12.98;;;9.40;;
36391;SDS011;22639;42.690;23.356;2022-09-29T18:55:00;13.98;;;8.73;;
36391;SDS011;22639;42.690;23.356;2022-09-29T18:58:26;14.13;;;9.10;;
36391;SDS011;22639;42.690;23.356;2022-09-29T19:01:50;10.93;;;8.82;;
36391;SDS011;22639;42.690;23.356;2022-09-29T19:05:19;17.25;;;10.02;;
36391;SDS011;22639;42.690;23.356;2022-09-29T19:08:43;14.63;;;9.95;;
36391;SDS011;22639;42.690;23.356;2022-09-29T19:12:07;13.25;;;9.55;;
36391;SDS011;22639;42.690;23.356;2022-09-29T19:15:35;14.88;;;11.18;;
36391;SDS011;22639;42.690;23.356;2022-09-29T19:18:59;13.70;;;10.27;;
36391;SDS011;22639;42.690;23.356;2022-09-29T19:22:24;21.40;;;16.67;;
36391;SDS011;22639;42.690;23.356;2022-09-29T19:25:50;19.98;;;12.55;;
36391;SDS011;22639;42.690;23.356;2022-09-29T19:29:14;20.77;;;14.85;;
36391;SDS011;22639;42.690;23.356;2022-09-29T19:32:40;19.73;;;13.50;;
36391;SDS011;22639;42.690;23.356;2022-09-29T19:36:07;17.40;;;13.85;;
36391;SDS011;22639;42.690;23.356;2022-09-29T19:39:31;21.50;;;13.48;;
36391;SDS011;22639;42.690;23.356;2022-09-29T19:42:58;18.75;;;12.63;;
36391;SDS011;22639;42.690;23.356;2022-09-29T19:46:23;14.25;;;11.85;;
36391;SDS011;22639;42.690;23.356;2022-09-29T19:49:47;16.45;;;11.45;;
36391;SDS011;22639;42.690;23.356;2022-09-29T19:53:30;14.40;;;11.93;;
36391;SDS011;22639;42.690;23.356;2022-09-29T19:57:01;17.00;;;12.80;;
36391;SDS011;22639;42.690;23.356;2022-09-29T20:00:26;17.25;;;12.73;;
36391;SDS011;22639;42.690;23.356;2022-09-29T20:03:50;11.90;;;10.43;;
36391;SDS011;22639;42.690;23.356;2022-09-29T20:07:16;11.57;;;8.95;;
36391;SDS011;22639;42.690;23.356;2022-09-29T20:10:40;10.30;;;8.45;;
36391;SDS011;22639;42.690;23.356;2022-09-29T20:14:05;14.00;;;9.80;;
36391;SDS011;22639;42.690;23.356;2022-09-29T20:17:31;14.02;;;9.93;;
36391;SDS011;22639;42.690;23.356;2022-09-29T20:20:58;15.40;;;10.55;;
36391;SDS011;22639;42.690;23.356;2022-09-29T20:24:23;11.32;;;9.38;;
36391;SDS011;22639;42.690;23.356;2022-09-29T20:27:47;12.07;;;9.45;;
36391;SDS011;22639;42.690;23.356;2022-09-29T20:31:14;13.88;;;10.35;;
36391;SDS011;22639;42.690;23.356;2022-09-29T20:34:43;14.50;;;9.82;;
36391;SDS011;22639;42.690;23.356;2022-09-29T20:38:06;10.85;;;8.82;;
36391;SDS011;22639;42.690;23.356;2022-09-29T20:41:30;14.80;;;9.77;;
36391;SDS011;22639;42.690;23.356;2022-09-29T20:44:57;10.93;;;9.27;;
36391;SDS011;22639;42.690;23.356;2022-09-29T20:48:22;12.88;;;9.60;;
36391;SDS011;22639;42.690;23.356;2022-09-29T20:51:46;14.20;;;10.27;;
36391;SDS011;22639;42.690;23.356;2022-09-29T20:55:12;13.35;;;10.13;;
36391;SDS011;22639;42.690;23.356;2022-09-29T20:58:41;12.93;;;8.75;;
36391;SDS011;22639;42.690;23.356;2022-09-29T21:02:05;14.20;;;9.77;;
36391;SDS011;22639;42.690;23.356;2022-09-29T21:05:29;16.35;;;10.75;;
36391;SDS011;22639;42.690;23.356;2022-09-29T21:08:58;11.77;;;9.35;;
36391;SDS011;22639;42.690;23.356;2022-09-29T21:12:25;12.48;;;9.80;;
36391;SDS011;22639;42.690;23.356;2022-09-29T21:15:49;15.82;;;10.70;;
36391;SDS011;22639;42.690;23.356;2022-09-29T21:19:15;15.98;;;11.02;;
36391;SDS011;22639;42.690;23.356;2022-09-29T21:22:39;14.93;;;11.18;;
36391;SDS011;22639;42.690;23.356;2022-09-29T21:26:04;14.07;;;11.50;;
36391;SDS011;22639;42.690;23.356;2022-09-29T21:29:29;14.90;;;11.90;;
36391;SDS011;22639;42.690;23.356;2022-09-29T21:32:54;17.48;;;12.85;;
36391;SDS011;22639;42.690;23.356;2022-09-29T21:36:19;18.83;;;12.73;;
36391;SDS011;22639;42.690;23.356;2022-09-29T21:39:43;18.17;;;11.82;;
36391;SDS011;22639;42.690;23.356;2022-09-29T21:43:07;17.58;;;13.25;;
36391;SDS011;22639;42.690;23.356;2022-09-29T21:46:35;16.30;;;12.55;;
36391;SDS011;22639;42.690;23.356;2022-09-29T21:50:18;22.67;;;12.48;;
36391;SDS011;22639;42.690;23.356;2022-09-29T21:53:45;20.15;;;13.73;;
36391;SDS011;22639;42.690;23.356;2022-09-29T21:57:09;17.23;;;12.95;;
36391;SDS011;22639;42.690;23.356;2022-09-29T22:00:33;17.95;;;13.60;;
36391;SDS011;22639;42.690;23.356;2022-09-29T22:03:57;18.73;;;13.23;;
36391;SDS011;22639;42.690;23.356;2022-09-29T22:07:21;18.88;;;13.27;;
36391;SDS011;22639;42.690;23.356;2022-09-29T22:10:47;18.17;;;13.55;;
36391;SDS011;22639;42.690;23.356;2022-09-29T22:14:13;17.33;;;12.98;;
36391;SDS011;22639;42.690;23.356;2022-09-29T22:17:37;20.33;;;13.77;;
36391;SDS011;22639;42.690;23.356;2022-09-29T22:21:03;18.08;;;12.35;;
36391;SDS011;22639;42.690;23.356;2022-09-29T22:24:27;19.95;;;13.02;;
36391;SDS011;22639;42.690;23.356;2022-09-29T22:27:51;23.77;;;12.80;;
36391;SDS011;22639;42.690;23.356;2022-09-29T22:31:17;15.05;;;12.13;;
36391;SDS011;22639;42.690;23.356;2022-09-29T22:34:41;14.85;;;11.32;;
36391;SDS011;22639;42.690;23.356;2022-09-29T22:38:05;16.45;;;12.15;;
36391;SDS011;22639;42.690;23.356;2022-09-29T22:41:31;18.52;;;11.82;;
36391;SDS011;22639;42.690;23.356;2022-09-29T22:44:55;17.10;;;12.07;;
36391;SDS011;22639;42.690;23.356;2022-09-29T22:48:19;18.52;;;12.98;;
36391;SDS011;22639;42.690;23.356;2022-09-29T22:51:43;16.77;;;11.35;;
36391;SDS011;22639;42.690;23.356;2022-09-29T22:55:07;21.85;;;13.48;;
36391;SDS011;22639;42.690;23.356;2022-09-29T22:58:40;18.25;;;12.80;;
36391;SDS011;22639;42.690;23.356;2022-09-29T23:02:04;19.65;;;12.60;;
36391;SDS011;22639;42.690;23.356;2022-09-29T23:05:29;20.98;;;12.65;;
36391;SDS011;22639;42.690;23.356;2022-09-29T23:08:53;21.65;;;13.32;;
36391;SDS011;22639;42.690;23.356;2022-09-29T23:12:17;17.83;;;12.20;;
36391;SDS011;22639;42.690;23.356;2022-09-29T23:15:43;23.20;;;12.52;;
36391;SDS011;22639;42.690;23.356;2022-09-29T23:19:09;18.02;;;13.15;;
36391;SDS011;22639;42.690;23.356;2022-09-29T23:22:34;15.95;;;12.10;;
36391;SDS011;22639;42.690;23.356;2022-09-29T23:25:58;20.95;;;12.20;;
36391;SDS011;22639;42.690;23.356;2022-09-29T23:29:24;19.42;;;12.10;;
36391;SDS011;22639;42.690;23.356;2022-09-29T23:32:48;15.15;;;11.80;;
36391;SDS011;22639;42.690;23.356;2022-09-29T23:36:16;20.95;;;12.70;;
36391;SDS011;22639;42.690;23.356;2022-09-29T23:39:40;13.02;;;10.98;;
36391;SDS011;22639;42.690;23.356;2022-09-29T23:43:05;14.18;;;10.88;;